sensor_id;sensor_type;location;lat;lon;timestamp;pressure;altitude;pressure_sealevel;temperature;humidity
28628;BME280;15815;46.760;19.604;2022-12-24T00:01:21;99759.19;;;7.60;100.00
28628;BME280;15815;46.760;19.604;2022-12-24T00:03:47;99764.38;;;7.65;100.00
28628;BME280;15815;46.760;19.604;2022-12-24T00:06:19;99768.41;;;7.71;100.00
28628;BME280;15815;46.760;19.604;2022-12-24T00:08:49;99774.00;;;7.71;100.00
28628;BME280;15815;46.760;19.604;2022-12-24T00:11:14;99762.00;;;7.74;100.00
28628;BME280;15815;46.760;19.604;2022-12-24T00:13:40;99774.00;;;7.82;100.00
28628;BME280;15815;46.760;19.604;2022-12-24T00:16:06;99754.03;;;7.77;100.00
28628;BME280;15815;46.760;19.604;2022-12-24T00:18:31;99758.81;;;7.83;100.00
28628;BME280;15815;46.760;19.604;2022-12-24T00:20:57;99770.78;;;7.91;100.00
28628;BME280;15815;46.760;19.604;2022-12-24T00:23:23;99762.81;;;7.89;100.00
28628;BME280;15815;46.760;19.604;2022-12-24T00:25:48;99754.81;;;7.84;100.00
28628;BME280;15815;46.760;19.604;2022-12-24T00:28:14;99768.41;;;7.93;100.00
28628;BME280;15815;46.760;19.604;2022-12-24T00:30:42;99776.41;;;7.98;100.00
28628;BME280;15815;46.760;19.604;2022-12-24T00:33:08;99764.00;;;7.92;100.00
28628;BME280;15815;46.760;19.604;2022-12-24T00:35:37;99774.81;;;7.97;100.00
28628;BME280;15815;46.760;19.604;2022-12-24T00:38:03;99772.41;;;7.95;100.00
28628;BME280;15815;46.760;19.604;2022-12-24T00:40:29;99771.63;;;8.02;100.00
28628;BME280;15815;46.760;19.604;2022-12-24T00:42:55;99767.63;;;8.03;100.00
28628;BME280;15815;46.760;19.604;2022-12-24T00:45:21;99746.44;;;7.95;100.00
28628;BME280;15815;46.760;19.604;2022-12-24T00:47:46;99751.63;;;7.96;100.00
28628;BME280;15815;46.760;19.604;2022-12-24T00:50:12;99750.03;;;7.99;100.00
28628;BME280;15815;46.760;19.604;2022-12-24T00:52:37;99754.03;;;8.01;100.00
28628;BME280;15815;46.760;19.604;2022-12-24T00:55:06;99772.00;;;8.11;100.00
28628;BME280;15815;46.760;19.604;2022-12-24T00:57:32;99753.22;;;8.01;100.00
28628;BME280;15815;46.760;19.604;2022-12-24T00:59:58;99756.03;;;7.97;100.00
28628;BME280;15815;46.760;19.604;2022-12-24T01:02:24;99764.00;;;8.06;100.00
28628;BME280;15815;46.760;19.604;2022-12-24T01:04:50;99759.63;;;8.01;100.00
28628;BME280;15815;46.760;19.604;2022-12-24T01:07:15;99781.19;;;8.15;100.00
28628;BME280;15815;46.760;19.604;2022-12-24T01:09:41;99744.41;;;7.92;100.00
28628;BME280;15815;46.760;19.604;2022-12-24T01:12:06;99787.19;;;8.21;100.00
28628;BME280;15815;46.760;19.604;2022-12-24T01:14:32;99762.81;;;8.07;100.00
28628;BME280;15815;46.760;19.604;2022-12-24T01:16:57;99773.19;;;8.14;100.00
28628;BME280;15815;46.760;19.604;2022-12-24T01:19:23;99780.41;;;8.22;100.00
28628;BME280;15815;46.760;19.604;2022-12-24T01:21:49;99758.41;;;8.13;100.00
28628;BME280;15815;46.760;19.604;2022-12-24T01:24:15;99760.78;;;8.18;100.00
28628;BME280;15815;46.760;19.604;2022-12-24T01:26:41;99754.00;;;8.12;100.00
28628;BME280;15815;46.760;19.604;2022-12-24T01:29:07;99770.81;;;8.23;100.00
28628;BME280;15815;46.760;19.604;2022-12-24T01:31:35;99777.59;;;8.25;100.00
28628;BME280;15815;46.760;19.604;2022-12-24T01:34:00;99791.19;;;8.30;100.00
28628;BME280;15815;46.760;19.604;2022-12-24T01:36:26;99772.38;;;8.20;100.00
28628;BME280;15815;46.760;19.604;2022-12-24T01:38:51;99797.19;;;8.32;100.00
28628;BME280;15815;46.760;19.604;2022-12-24T01:41:20;99793.59;;;8.35;100.00
28628;BME280;15815;46.760;19.604;2022-12-24T01:43:46;99778.78;;;8.31;100.00
28628;BME280;15815;46.760;19.604;2022-12-24T01:46:25;99787.19;;;8.39;100.00
28628;BME280;15815;46.760;19.604;2022-12-24T01:48:55;99790.78;;;8.39;100.00
28628;BME280;15815;46.760;19.604;2022-12-24T01:51:43;99777.59;;;8.36;100.00
28628;BME280;15815;46.760;19.604;2022-12-24T01:54:16;99769.97;;;8.33;100.00
28628;BME280;15815;46.760;19.604;2022-12-24T01:56:49;99766.00;;;8.34;100.00
28628;BME280;15815;46.760;19.604;2022-12-24T01:59:17;99753.97;;;8.30;100.00
28628;BME280;15815;46.760;19.604;2022-12-24T02:01:47;99757.59;;;8.38;100.00
28628;BME280;15815;46.760;19.604;2022-12-24T02:04:36;99765.56;;;8.46;100.00
28628;BME280;15815;46.760;19.604;2022-12-24T02:07:05;99765.97;;;8.45;100.00
28628;BME280;15815;46.760;19.604;2022-12-24T02:09:33;99750.75;;;8.46;100.00
28628;BME280;15815;46.760;19.604;2022-12-24T02:12:00;99749.97;;;8.42;100.00
28628;BME280;15815;46.760;19.604;2022-12-24T02:14:27;99737.59;;;8.35;100.00
28628;BME280;15815;46.760;19.604;2022-12-24T02:25:23;99757.59;;;8.41;100.00
28628;BME280;15815;46.760;19.604;2022-12-24T02:28:08;99759.19;;;8.39;100.00
28628;BME280;15815;46.760;19.604;2022-12-24T02:33:22;99759.19;;;8.35;100.00
28628;BME280;15815;46.760;19.604;2022-12-24T02:35:57;99748.41;;;8.33;100.00
28628;BME280;15815;46.760;19.604;2022-12-24T02:38:37;99742.38;;;8.31;100.00
28628;BME280;15815;46.760;19.604;2022-12-24T02:41:13;99739.19;;;8.36;100.00
28628;BME280;15815;46.760;19.604;2022-12-24T02:43:44;99739.59;;;8.35;100.00
28628;BME280;15815;46.760;19.604;2022-12-24T02:46:17;99738.81;;;8.34;100.00
28628;BME280;15815;46.760;19.604;2022-12-24T02:48:46;99733.56;;;8.33;100.00
28628;BME280;15815;46.760;19.604;2022-12-24T02:51:15;99736.41;;;8.36;100.00
28628;BME280;15815;46.760;19.604;2022-12-24T02:53:42;99721.19;;;8.30;100.00
28628;BME280;15815;46.760;19.604;2022-12-24T03:02:08;99762.38;;;8.51;100.00
28628;BME280;15815;46.760;19.604;2022-12-24T03:07:25;99748.38;;;8.44;100.00
28628;BME280;15815;46.760;19.604;2022-12-24T03:12:55;99763.56;;;8.43;100.00
28628;BME280;15815;46.760;19.604;2022-12-24T03:15:24;99781.19;;;8.44;100.00
28628;BME280;15815;46.760;19.604;2022-12-24T03:17:56;99801.19;;;8.46;100.00
28628;BME280;15815;46.760;19.604;2022-12-24T03:20:26;99806.41;;;8.40;100.00
28628;BME280;15815;46.760;19.604;2022-12-24T03:22:56;99819.97;;;8.49;100.00
28628;BME280;15815;46.760;19.604;2022-12-24T03:25:24;99808.78;;;8.45;100.00
28628;BME280;15815;46.760;19.604;2022-12-24T03:27:56;99796.78;;;8.48;100.00
28628;BME280;15815;46.760;19.604;2022-12-24T03:30:22;99780.78;;;8.42;100.00
28628;BME280;15815;46.760;19.604;2022-12-24T03:32:48;99784.38;;;8.46;100.00
28628;BME280;15815;46.760;19.604;2022-12-24T03:35:14;99775.16;;;8.49;100.00
28628;BME280;15815;46.760;19.604;2022-12-24T03:37:39;99769.59;;;8.42;100.00
28628;BME280;15815;46.760;19.604;2022-12-24T03:40:05;99772.78;;;8.44;100.00
28628;BME280;15815;46.760;19.604;2022-12-24T03:42:32;99759.59;;;8.41;100.00
28628;BME280;15815;46.760;19.604;2022-12-24T03:44:58;99759.97;;;8.43;100.00
28628;BME280;15815;46.760;19.604;2022-12-24T03:47:23;99769.97;;;8.51;100.00
28628;BME280;15815;46.760;19.604;2022-12-24T03:49:49;99769.56;;;8.49;100.00
28628;BME280;15815;46.760;19.604;2022-12-24T03:52:14;99764.78;;;8.53;100.00
28628;BME280;15815;46.760;19.604;2022-12-24T03:54:41;99762.78;;;8.50;100.00
28628;BME280;15815;46.760;19.604;2022-12-24T03:57:06;99759.97;;;8.46;100.00
28628;BME280;15815;46.760;19.604;2022-12-24T03:59:32;99770.38;;;8.53;100.00
28628;BME280;15815;46.760;19.604;2022-12-24T04:01:57;99765.97;;;8.55;100.00
28628;BME280;15815;46.760;19.604;2022-12-24T04:04:26;99763.16;;;8.55;100.00
28628;BME280;15815;46.760;19.604;2022-12-24T04:06:52;99771.56;;;8.59;100.00
28628;BME280;15815;46.760;19.604;2022-12-24T04:09:17;99777.13;;;8.66;100.00
28628;BME280;15815;46.760;19.604;2022-12-24T04:11:43;99767.53;;;8.63;100.00
28628;BME280;15815;46.760;19.604;2022-12-24T04:14:08;99764.28;;;8.72;100.00
28628;BME280;15815;46.760;19.604;2022-12-24T04:16:34;99753.09;;;8.72;100.00
28628;BME280;15815;46.760;19.604;2022-12-24T04:18:59;99773.88;;;8.82;100.00
28628;BME280;15815;46.760;19.604;2022-12-24T04:21:25;99776.69;;;8.85;100.00
28628;BME280;15815;46.760;19.604;2022-12-24T04:23:50;99754.69;;;8.80;100.00
28628;BME280;15815;46.760;19.604;2022-12-24T04:26:16;99762.66;;;8.85;100.00
28628;BME280;15815;46.760;19.604;2022-12-24T04:28:42;99761.44;;;8.90;100.00
28628;BME280;15815;46.760;19.604;2022-12-24T04:31:10;99780.22;;;9.00;100.00
28628;BME280;15815;46.760;19.604;2022-12-24T04:33:37;99777.41;;;8.96;100.00
28628;BME280;15815;46.760;19.604;2022-12-24T04:36:04;99791.41;;;9.04;100.00
28628;BME280;15815;46.760;19.604;2022-12-24T04:38:30;99787.81;;;8.99;100.00
28628;BME280;15815;46.760;19.604;2022-12-24T04:41:08;99796.22;;;9.03;100.00
28628;BME280;15815;46.760;19.604;2022-12-24T04:43:35;99783.41;;;9.06;100.00
28628;BME280;15815;46.760;19.604;2022-12-24T04:46:09;99805.78;;;9.13;100.00
28628;BME280;15815;46.760;19.604;2022-12-24T04:48:36;99802.22;;;9.09;100.00
28628;BME280;15815;46.760;19.604;2022-12-24T04:51:03;99791.81;;;9.06;100.00
28628;BME280;15815;46.760;19.604;2022-12-24T04:53:30;99791.41;;;9.04;100.00
28628;BME280;15815;46.760;19.604;2022-12-24T04:55:56;99793.00;;;9.08;100.00
28628;BME280;15815;46.760;19.604;2022-12-24T04:58:22;99781.06;;;8.90;100.00
28628;BME280;15815;46.760;19.604;2022-12-24T05:00:47;99805.03;;;9.09;100.00
28628;BME280;15815;46.760;19.604;2022-12-24T05:03:13;99802.22;;;9.02;100.00
28628;BME280;15815;46.760;19.604;2022-12-24T05:05:38;99800.25;;;8.95;100.00
28628;BME280;15815;46.760;19.604;2022-12-24T05:08:04;99819.44;;;9.07;100.00
28628;BME280;15815;46.760;19.604;2022-12-24T05:10:29;99797.06;;;8.89;100.00
28628;BME280;15815;46.760;19.604;2022-12-24T05:12:57;99821.44;;;9.07;100.00
28628;BME280;15815;46.760;19.604;2022-12-24T05:15:23;99813.03;;;9.03;100.00
28628;BME280;15815;46.760;19.604;2022-12-24T05:17:48;99801.06;;;8.92;100.00
28628;BME280;15815;46.760;19.604;2022-12-24T05:20:14;99816.66;;;8.96;100.00
28628;BME280;15815;46.760;19.604;2022-12-24T05:22:40;99831.06;;;9.06;100.00
28628;BME280;15815;46.760;19.604;2022-12-24T05:25:06;99828.25;;;9.06;100.00
28628;BME280;15815;46.760;19.604;2022-12-24T05:27:31;99822.66;;;8.98;100.00
28628;BME280;15815;46.760;19.604;2022-12-24T05:29:57;99833.06;;;9.02;100.00
28628;BME280;15815;46.760;19.604;2022-12-24T05:32:23;99832.25;;;9.01;100.00
28628;BME280;15815;46.760;19.604;2022-12-24T05:34:49;99833.88;;;8.98;100.00
28628;BME280;15815;46.760;19.604;2022-12-24T05:37:14;99847.06;;;9.02;100.00
28628;BME280;15815;46.760;19.604;2022-12-24T05:39:40;99842.25;;;9.02;100.00
28628;BME280;15815;46.760;19.604;2022-12-24T05:42:05;99841.06;;;8.99;100.00
28628;BME280;15815;46.760;19.604;2022-12-24T05:44:31;99833.06;;;9.02;100.00
28628;BME280;15815;46.760;19.604;2022-12-24T05:46:57;99847.47;;;9.00;100.00
28628;BME280;15815;46.760;19.604;2022-12-24T05:49:24;99837.47;;;9.03;100.00
28628;BME280;15815;46.760;19.604;2022-12-24T05:51:50;99827.84;;;9.04;100.00
28628;BME280;15815;46.760;19.604;2022-12-24T05:54:16;99823.88;;;9.05;100.00
28628;BME280;15815;46.760;19.604;2022-12-24T05:56:41;99830.66;;;9.04;100.00
28628;BME280;15815;46.760;19.604;2022-12-24T05:59:07;99825.88;;;8.97;100.00
28628;BME280;15815;46.760;19.604;2022-12-24T06:01:32;99839.06;;;9.07;100.00
28628;BME280;15815;46.760;19.604;2022-12-24T06:03:58;99822.63;;;9.02;100.00
28628;BME280;15815;46.760;19.604;2022-12-24T06:06:26;99834.63;;;9.13;100.00
28628;BME280;15815;46.760;19.604;2022-12-24T06:08:53;99841.44;;;9.12;100.00
28628;BME280;15815;46.760;19.604;2022-12-24T06:11:21;99835.84;;;9.12;100.00
28628;BME280;15815;46.760;19.604;2022-12-24T06:13:47;99830.63;;;9.11;100.00
28628;BME280;15815;46.760;19.604;2022-12-24T06:16:15;99838.66;;;9.09;100.00
28628;BME280;15815;46.760;19.604;2022-12-24T06:18:41;99821.44;;;8.99;100.00
28628;BME280;15815;46.760;19.604;2022-12-24T06:21:07;99837.88;;;9.08;100.00
28628;BME280;15815;46.760;19.604;2022-12-24T06:23:35;99847.88;;;9.06;100.00
28628;BME280;15815;46.760;19.604;2022-12-24T06:26:02;99850.28;;;9.07;100.00
28628;BME280;15815;46.760;19.604;2022-12-24T06:28:29;99833.06;;;9.02;100.00
28628;BME280;15815;46.760;19.604;2022-12-24T06:30:58;99839.47;;;9.06;100.00
28628;BME280;15815;46.760;19.604;2022-12-24T06:33:24;99841.06;;;8.99;100.00
28628;BME280;15815;46.760;19.604;2022-12-24T06:35:50;99827.88;;;8.93;100.00
28628;BME280;15815;46.760;19.604;2022-12-24T06:38:15;99856.28;;;8.98;100.00
28628;BME280;15815;46.760;19.604;2022-12-24T06:40:42;99855.53;;;8.91;100.00
28628;BME280;15815;46.760;19.604;2022-12-24T06:43:09;99857.09;;;8.95;100.00
28628;BME280;15815;46.760;19.604;2022-12-24T06:45:35;99868.72;;;8.97;100.00
28628;BME280;15815;46.760;19.604;2022-12-24T06:48:01;99865.50;;;8.99;100.00
28628;BME280;15815;46.760;19.604;2022-12-24T06:50:27;99865.13;;;8.90;100.00
28628;BME280;15815;46.760;19.604;2022-12-24T06:52:53;99887.53;;;8.93;100.00
28628;BME280;15815;46.760;19.604;2022-12-24T06:55:18;99887.16;;;8.91;100.00
28628;BME280;15815;46.760;19.604;2022-12-24T06:57:44;99878.75;;;8.91;100.00
28628;BME280;15815;46.760;19.604;2022-12-24T07:00:11;99885.16;;;8.88;100.00
28628;BME280;15815;46.760;19.604;2022-12-24T07:02:46;99888.75;;;8.89;100.00
28628;BME280;15815;46.760;19.604;2022-12-24T07:05:12;99901.97;;;8.92;100.00
28628;BME280;15815;46.760;19.604;2022-12-24T07:07:39;99903.56;;;8.93;100.00
28628;BME280;15815;46.760;19.604;2022-12-24T07:10:05;99912.38;;;8.91;100.00
28628;BME280;15815;46.760;19.604;2022-12-24T07:12:31;99916.38;;;8.94;100.00
28628;BME280;15815;46.760;19.604;2022-12-24T07:14:57;99904.38;;;8.90;100.00
28628;BME280;15815;46.760;19.604;2022-12-24T07:17:23;99898.78;;;8.83;100.00
28628;BME280;15815;46.760;19.604;2022-12-24T07:19:50;99901.19;;;8.84;100.00
28628;BME280;15815;46.760;19.604;2022-12-24T07:22:15;99920.41;;;8.86;100.00
28628;BME280;15815;46.760;19.604;2022-12-24T07:24:41;99929.19;;;8.91;100.00
28628;BME280;15815;46.760;19.604;2022-12-24T07:27:09;99927.19;;;8.88;100.00
28628;BME280;15815;46.760;19.604;2022-12-24T07:29:34;99942.00;;;8.92;100.00
28628;BME280;15815;46.760;19.604;2022-12-24T07:32:00;99916.00;;;8.81;100.00
28628;BME280;15815;46.760;19.604;2022-12-24T07:34:26;99925.97;;;8.96;100.00
28628;BME280;15815;46.760;19.604;2022-12-24T07:36:51;99915.59;;;8.90;100.00
28628;BME280;15815;46.760;19.604;2022-12-24T07:39:17;99921.19;;;8.93;100.00
28628;BME280;15815;46.760;19.604;2022-12-24T07:41:42;99905.97;;;8.87;100.00
28628;BME280;15815;46.760;19.604;2022-12-24T07:44:12;99919.19;;;9.05;100.00
28628;BME280;15815;46.760;19.604;2022-12-24T07:46:37;99924.78;;;9.05;100.00
28628;BME280;15815;46.760;19.604;2022-12-24T07:49:03;99907.16;;;8.97;100.00
28628;BME280;15815;46.760;19.604;2022-12-24T07:51:28;99921.16;;;9.08;100.00
28628;BME280;15815;46.760;19.604;2022-12-24T07:53:57;99915.56;;;9.08;100.00
28628;BME280;15815;46.760;19.604;2022-12-24T07:56:22;99906.75;;;9.06;100.00
28628;BME280;15815;46.760;19.604;2022-12-24T07:58:49;99911.91;;;9.18;100.00
28628;BME280;15815;46.760;19.604;2022-12-24T08:01:15;99922.34;;;9.17;100.00
28628;BME280;15815;46.760;19.604;2022-12-24T08:03:44;99924.31;;;9.24;100.00
28628;BME280;15815;46.760;19.604;2022-12-24T08:06:10;99926.69;;;9.29;100.00
28628;BME280;15815;46.760;19.604;2022-12-24T08:08:36;99929.50;;;9.36;100.00
28628;BME280;15815;46.760;19.604;2022-12-24T08:11:03;99927.09;;;9.31;100.00
28628;BME280;15815;46.760;19.604;2022-12-24T08:13:30;99923.09;;;9.32;100.00
28628;BME280;15815;46.760;19.604;2022-12-24T08:15:55;99937.06;;;9.46;100.00
28628;BME280;15815;46.760;19.604;2022-12-24T08:18:21;99961.09;;;9.51;100.00
28628;BME280;15815;46.760;19.604;2022-12-24T08:20:47;99951.50;;;9.48;100.00
28628;BME280;15815;46.760;19.604;2022-12-24T08:23:13;99961.88;;;9.62;100.00
28628;BME280;15815;46.760;19.604;2022-12-24T08:25:43;99962.25;;;9.68;100.00
28628;BME280;15815;46.760;19.604;2022-12-24T08:28:09;99966.63;;;9.76;100.00
28628;BME280;15815;46.760;19.604;2022-12-24T08:30:34;99982.19;;;9.91;100.00
28628;BME280;15815;46.760;19.604;2022-12-24T08:33:00;99986.56;;;9.99;100.00
28628;BME280;15815;46.760;19.604;2022-12-24T08:35:26;99996.53;;;10.07;100.00
28628;BME280;15815;46.760;19.604;2022-12-24T08:37:51;100004.53;;;10.19;100.00
28628;BME280;15815;46.760;19.604;2022-12-24T08:40:17;100012.88;;;10.34;100.00
28628;BME280;15815;46.760;19.604;2022-12-24T08:42:44;100013.63;;;10.45;100.00
28628;BME280;15815;46.760;19.604;2022-12-24T08:45:09;100019.19;;;10.52;99.35
28628;BME280;15815;46.760;19.604;2022-12-24T08:47:36;100023.94;;;10.62;100.00
28628;BME280;15815;46.760;19.604;2022-12-24T08:50:02;100036.75;;;10.70;98.90
28628;BME280;15815;46.760;19.604;2022-12-24T08:52:28;100031.13;;;10.70;96.85
28628;BME280;15815;46.760;19.604;2022-12-24T08:54:53;100037.06;;;10.79;97.50
28628;BME280;15815;46.760;19.604;2022-12-24T08:57:19;100042.16;;;10.99;98.61
28628;BME280;15815;46.760;19.604;2022-12-24T08:59:45;100052.47;;;11.12;97.49
28628;BME280;15815;46.760;19.604;2022-12-24T09:02:10;100039.59;;;11.15;97.43
28628;BME280;15815;46.760;19.604;2022-12-24T09:04:37;100037.16;;;11.17;96.09
28628;BME280;15815;46.760;19.604;2022-12-24T09:07:07;100035.53;;;11.23;97.15
28628;BME280;15815;46.760;19.604;2022-12-24T09:09:34;100051.94;;;11.28;95.61
28628;BME280;15815;46.760;19.604;2022-12-24T09:12:00;100031.63;;;11.10;93.78
28628;BME280;15815;46.760;19.604;2022-12-24T09:14:26;100046.66;;;11.34;95.66
28628;BME280;15815;46.760;19.604;2022-12-24T09:16:51;100063.50;;;11.37;95.39
28628;BME280;15815;46.760;19.604;2022-12-24T09:19:22;100046.72;;;11.30;95.13
28628;BME280;15815;46.760;19.604;2022-12-24T09:21:47;100061.97;;;11.33;95.10
28628;BME280;15815;46.760;19.604;2022-12-24T09:24:13;100067.97;;;11.35;95.50
28628;BME280;15815;46.760;19.604;2022-12-24T09:26:39;100059.63;;;11.24;94.83
28628;BME280;15815;46.760;19.604;2022-12-24T09:29:06;100076.47;;;11.28;94.31
28628;BME280;15815;46.760;19.604;2022-12-24T09:31:32;100074.03;;;11.30;94.69
28628;BME280;15815;46.760;19.604;2022-12-24T09:33:57;100077.66;;;11.30;93.47
28628;BME280;15815;46.760;19.604;2022-12-24T09:36:23;100058.03;;;11.20;94.08
28628;BME280;15815;46.760;19.604;2022-12-24T09:38:49;100082.84;;;11.35;94.75
28628;BME280;15815;46.760;19.604;2022-12-24T09:43:54;100092.50;;;11.34;93.70
28628;BME280;15815;46.760;19.604;2022-12-24T09:46:35;100093.25;;;11.38;95.36
28628;BME280;15815;46.760;19.604;2022-12-24T09:49:05;100098.47;;;11.40;94.74
28628;BME280;15815;46.760;19.604;2022-12-24T09:51:41;100097.25;;;11.41;95.69
28628;BME280;15815;46.760;19.604;2022-12-24T09:56:53;100102.06;;;11.40;94.70
28628;BME280;15815;46.760;19.604;2022-12-24T09:59:42;100094.06;;;11.39;94.46
28628;BME280;15815;46.760;19.604;2022-12-24T10:02:18;100093.25;;;11.38;94.57
28628;BME280;15815;46.760;19.604;2022-12-24T10:04:45;100094.47;;;11.37;93.60
28628;BME280;15815;46.760;19.604;2022-12-24T10:07:36;100103.59;;;11.49;95.67
28628;BME280;15815;46.760;19.604;2022-12-24T10:10:14;100110.44;;;11.51;95.91
28628;BME280;15815;46.760;19.604;2022-12-24T10:15:49;100097.97;;;11.52;93.05
28628;BME280;15815;46.760;19.604;2022-12-24T10:24:21;100108.28;;;11.66;92.09
28628;BME280;15815;46.760;19.604;2022-12-24T10:27:14;100118.63;;;11.76;90.29
28628;BME280;15815;46.760;19.604;2022-12-24T10:29:44;100112.22;;;11.79;92.74
28628;BME280;15815;46.760;19.604;2022-12-24T10:32:24;100113.34;;;11.85;91.78
28628;BME280;15815;46.760;19.604;2022-12-24T10:37:39;100102.81;;;11.93;91.78
28628;BME280;15815;46.760;19.604;2022-12-24T10:40:05;100095.16;;;11.93;93.60
28628;BME280;15815;46.760;19.604;2022-12-24T10:42:38;100105.13;;;12.01;92.80
28628;BME280;15815;46.760;19.604;2022-12-24T10:45:06;100105.06;;;12.09;93.35
28628;BME280;15815;46.760;19.604;2022-12-24T10:47:36;100097.41;;;12.09;92.96
28628;BME280;15815;46.760;19.604;2022-12-24T10:50:12;100112.56;;;12.19;93.35
28628;BME280;15815;46.760;19.604;2022-12-24T10:52:41;100096.56;;;12.12;95.37
28628;BME280;15815;46.760;19.604;2022-12-24T10:57:44;100111.81;;;12.15;92.21
28628;BME280;15815;46.760;19.604;2022-12-24T11:00:21;100112.53;;;12.22;91.76
28628;BME280;15815;46.760;19.604;2022-12-24T11:02:48;100109.75;;;12.19;91.49
28628;BME280;15815;46.760;19.604;2022-12-24T11:05:31;100120.59;;;12.20;88.18
28628;BME280;15815;46.760;19.604;2022-12-24T11:11:00;100119.81;;;12.20;90.21
28628;BME280;15815;46.760;19.604;2022-12-24T11:13:29;100120.94;;;12.26;90.98
28628;BME280;15815;46.760;19.604;2022-12-24T11:18:30;100123.81;;;12.22;91.70
28628;BME280;15815;46.760;19.604;2022-12-24T11:20:56;100135.03;;;12.26;90.38
28628;BME280;15815;46.760;19.604;2022-12-24T11:23:23;100124.56;;;12.26;88.75
28628;BME280;15815;46.760;19.604;2022-12-24T11:25:49;100133.31;;;12.35;91.46
28628;BME280;15815;46.760;19.604;2022-12-24T11:28:24;100145.31;;;12.43;89.55
28628;BME280;15815;46.760;19.604;2022-12-24T11:31:04;100138.06;;;12.42;87.32
28628;BME280;15815;46.760;19.604;2022-12-24T11:33:30;100129.28;;;12.36;88.56
28628;BME280;15815;46.760;19.604;2022-12-24T11:36:01;100120.94;;;12.26;87.51
28628;BME280;15815;46.760;19.604;2022-12-24T11:38:27;100138.81;;;12.46;87.99
28628;BME280;15815;46.760;19.604;2022-12-24T11:41:01;100127.59;;;12.43;87.91
28628;BME280;15815;46.760;19.604;2022-12-24T11:43:35;100130.72;;;12.48;89.83
28628;BME280;15815;46.760;19.604;2022-12-24T11:46:11;100130.78;;;12.45;88.80
28628;BME280;15815;46.760;19.604;2022-12-24T11:48:37;100128.81;;;12.42;91.33
28628;BME280;15815;46.760;19.604;2022-12-24T11:51:05;100133.75;;;12.34;88.34
28628;BME280;15815;46.760;19.604;2022-12-24T11:56:23;100137.78;;;12.33;88.18
28628;BME280;15815;46.760;19.604;2022-12-24T11:58:58;100127.31;;;12.30;86.53
28628;BME280;15815;46.760;19.604;2022-12-24T12:01:29;100127.75;;;12.28;86.72
28628;BME280;15815;46.760;19.604;2022-12-24T12:04:00;100142.25;;;12.27;85.80
28628;BME280;15815;46.760;19.604;2022-12-24T12:06:32;100125.44;;;12.20;84.93
28628;BME280;15815;46.760;19.604;2022-12-24T12:09:02;100131.84;;;12.24;85.29
28628;BME280;15815;46.760;19.604;2022-12-24T12:11:32;100121.13;;;12.12;83.09
28628;BME280;15815;46.760;19.604;2022-12-24T12:14:00;100137.13;;;12.18;85.59
28628;BME280;15815;46.760;19.604;2022-12-24T12:16:39;100134.31;;;12.18;83.27
28628;BME280;15815;46.760;19.604;2022-12-24T12:19:08;100123.13;;;12.11;81.80
28628;BME280;15815;46.760;19.604;2022-12-24T12:21:41;100135.91;;;12.19;85.10
28628;BME280;15815;46.760;19.604;2022-12-24T12:24:23;100142.72;;;12.22;81.09
28628;BME280;15815;46.760;19.604;2022-12-24T12:30:05;100140.75;;;12.19;81.99
28628;BME280;15815;46.760;19.604;2022-12-24T12:32:44;100145.97;;;12.20;80.80
28628;BME280;15815;46.760;19.604;2022-12-24T12:35:20;100139.19;;;12.14;80.10
28628;BME280;15815;46.760;19.604;2022-12-24T12:37:57;100143.22;;;12.13;78.85
28628;BME280;15815;46.760;19.604;2022-12-24T12:40:59;100167.72;;;12.20;79.12
28628;BME280;15815;46.760;19.604;2022-12-24T12:53:18;100169.84;;;12.09;81.54
28628;BME280;15815;46.760;19.604;2022-12-24T12:55:38;100174.69;;;12.04;80.26
28628;BME280;15815;46.760;19.604;2022-12-24T12:58:36;100168.75;;;11.95;80.61
28628;BME280;15815;46.760;19.604;2022-12-24T13:01:14;100187.22;;;12.00;78.46
28628;BME280;15815;46.760;19.604;2022-12-24T13:03:49;100185.97;;;12.04;83.13
28628;BME280;15815;46.760;19.604;2022-12-24T13:10:04;100201.38;;;11.93;81.98
28628;BME280;15815;46.760;19.604;2022-12-24T13:13:08;100210.25;;;11.91;82.31
28628;BME280;15815;46.760;19.604;2022-12-24T13:20:31;100209.94;;;11.82;83.36
28628;BME280;15815;46.760;19.604;2022-12-24T13:23:27;100206.34;;;11.74;80.41
28628;BME280;15815;46.760;19.604;2022-12-24T13:25:57;100230.50;;;11.72;80.70
28628;BME280;15815;46.760;19.604;2022-12-24T13:30:50;100235.78;;;11.63;80.67
28628;BME280;15815;46.760;19.604;2022-12-24T13:36:13;100231.00;;;11.60;81.15
28628;BME280;15815;46.760;19.604;2022-12-24T13:47:03;100235.44;;;11.57;80.54
28628;BME280;15815;46.760;19.604;2022-12-24T13:54:38;100230.69;;;11.43;81.52
28628;BME280;15815;46.760;19.604;2022-12-24T14:02:55;100235.94;;;11.41;81.30
28628;BME280;15815;46.760;19.604;2022-12-24T14:11:18;100239.69;;;11.24;79.12
28628;BME280;15815;46.760;19.604;2022-12-24T14:16:31;100259.78;;;11.19;79.88
28628;BME280;15815;46.760;19.604;2022-12-24T14:19:13;100250.19;;;11.13;80.49
28628;BME280;15815;46.760;19.604;2022-12-24T14:22:47;100267.44;;;11.15;79.77
28628;BME280;15815;46.760;19.604;2022-12-24T14:25:36;100267.91;;;11.06;83.09
28628;BME280;15815;46.760;19.604;2022-12-24T14:27:40;100279.16;;;11.03;82.04
28628;BME280;15815;46.760;19.604;2022-12-24T14:30:23;100283.22;;;10.98;83.19
28628;BME280;15815;46.760;19.604;2022-12-24T14:32:50;100296.91;;;10.86;82.72
28628;BME280;15815;46.760;19.604;2022-12-24T14:37:59;100303.78;;;10.70;82.83
28628;BME280;15815;46.760;19.604;2022-12-24T14:40:34;100311.41;;;10.63;81.30
28628;BME280;15815;46.760;19.604;2022-12-24T14:48:56;100323.13;;;10.47;81.69